Time;durP1;ratioP1;P1;durP2;ratioP2;P2;SDS_P1;SDS_P2;PMS_P1;PMS_P2;Temp;Humidity;BMP_temperature;BMP_pressure;BME280_temperature;BME280_humidity;BME280_pressure;Samples;Min_cycle;Max_cycle;Signal;HPM_P1;HPM_P2
2022/06/29 00:01:26;;;;;;;7.38;6.13;;;12.40;99.90;;;;;;5050868;28;20037;-66
2022/06/29 00:03:53;;;;;;;8.50;5.70;;;12.60;99.90;;;;;;5048528;28;20025;-63
2022/06/29 00:06:20;;;;;;;7.55;5.25;;;12.70;99.90;;;;;;5050877;28;20052;-65
2022/06/29 00:08:47;;;;;;;9.85;6.15;;;12.90;99.90;;;;;;5051171;28;20032;-65
2022/06/29 00:11:14;;;;;;;12.32;8.40;;;13.10;99.90;;;;;;5051756;28;20021;-66
2022/06/29 00:13:41;;;;;;;7.55;5.50;;;13.20;99.90;;;;;;5050003;28;20454;-67
2022/06/29 00:16:08;;;;;;;5.50;4.78;;;13.30;99.90;;;;;;5051053;28;20017;-66
2022/06/29 00:18:36;;;;;;;5.90;3.92;;;13.40;99.90;;;;;;5050266;28;20104;-66
2022/06/29 00:21:04;;;;;;;4.85;3.42;;;13.60;99.90;;;;;;5051126;28;20064;-68
2022/06/29 00:23:31;;;;;;;2.85;2.55;;;13.60;99.90;;;;;;5048946;28;20478;-67
2022/06/29 00:25:58;;;;;;;4.60;3.20;;;13.90;99.90;;;;;;5050141;28;20060;-67
2022/06/29 00:28:25;;;;;;;4.57;3.55;;;13.90;99.90;;;;;;5050038;28;20017;-67
2022/06/29 00:30:53;;;;;;;5.50;3.40;;;14.10;99.90;;;;;;5050128;28;20044;-67
2022/06/29 00:33:20;;;;;;;9.25;6.90;;;14.20;99.90;;;;;;5050417;28;20027;-66
2022/06/29 00:35:47;;;;;;;5.57;3.97;;;14.40;99.90;;;;;;5050770;28;20479;-66
2022/06/29 00:38:14;;;;;;;4.22;2.60;;;14.60;99.90;;;;;;5049743;28;20017;-66
2022/06/29 00:40:42;;;;;;;3.90;2.50;;;14.90;99.90;;;;;;5050848;28;20033;-67
2022/06/29 00:43:09;;;;;;;4.22;2.88;;;15.00;99.90;;;;;;5050782;28;20430;-66
2022/06/29 00:45:36;;;;;;;5.60;3.80;;;15.10;99.90;;;;;;5050277;28;20031;-67
2022/06/29 00:48:04;;;;;;;6.68;3.67;;;15.20;99.90;;;;;;5031836;28;20117;-67
2022/06/29 00:50:33;;;;;;;4.93;3.45;;;15.30;99.90;;;;;;5032894;28;20100;-66
2022/06/29 00:53:03;;;;;;;3.20;2.20;;;15.30;99.90;;;;;;5047695;28;20112;-64
2022/06/29 00:55:37;;;;;;;4.13;1.77;;;15.50;99.90;;;;;;5050824;28;20094;-66
2022/06/29 00:58:06;;;;;;;6.60;3.00;;;15.50;99.90;;;;;;5050239;28;20106;-66
2022/06/29 01:00:34;;;;;;;3.80;2.70;;;15.70;99.90;;;;;;5046911;28;20036;-66
2022/06/29 01:03:01;;;;;;;3.33;2.42;;;15.80;99.90;;;;;;5050512;28;20028;-67
2022/06/29 01:05:30;;;;;;;3.65;3.20;;;16.00;99.90;;;;;;5049750;28;20040;-63
2022/06/29 01:07:58;;;;;;;4.15;2.63;;;16.20;99.90;;;;;;5049160;28;20021;-65
2022/06/29 01:10:26;;;;;;;7.28;3.63;;;16.30;99.90;;;;;;5050043;28;20533;-63
2022/06/29 01:12:53;;;;;;;5.00;3.67;;;16.40;99.90;;;;;;5050273;28;20009;-63
2022/06/29 01:15:21;;;;;;;6.47;4.28;;;16.50;99.90;;;;;;5050259;28;20055;-63
2022/06/29 01:17:49;;;;;;;7.78;4.75;;;16.70;99.90;;;;;;5049831;28;20468;-64
2022/06/29 01:20:16;;;;;;;4.90;2.70;;;17.00;99.90;;;;;;5049104;28;20024;-63
2022/06/29 01:22:43;;;;;;;2.38;2.00;;;17.10;99.90;;;;;;5031530;28;20044;-65
2022/06/29 01:25:11;;;;;;;3.15;1.88;;;17.20;99.90;;;;;;5050256;28;20025;-64
2022/06/29 01:27:38;;;;;;;3.50;2.50;;;17.40;99.90;;;;;;5050224;28;20048;-64
2022/06/29 01:30:07;;;;;;;4.93;2.67;;;17.50;99.90;;;;;;5049542;28;20090;-64
2022/06/29 01:32:39;;;;;;;3.80;2.00;;;17.40;99.90;;;;;;5047458;28;20378;-65
2022/06/29 01:35:16;;;;;;;4.68;2.00;;;17.60;99.90;;;;;;5049481;28;20368;-63
2022/06/29 01:37:43;;;;;;;4.35;1.50;;;17.60;99.90;;;;;;5048179;28;20021;-64
2022/06/29 01:40:11;;;;;;;4.40;1.45;;;17.80;99.90;;;;;;5049284;28;20447;-63
2022/06/29 01:42:38;;;;;;;2.10;1.45;;;18.00;99.70;;;;;;5049401;28;20028;-64
2022/06/29 01:45:06;;;;;;;2.88;1.20;;;18.00;99.90;;;;;;5049511;28;20104;-64
2022/06/29 01:47:34;;;;;;;3.40;1.10;;;18.10;99.80;;;;;;5046873;28;20019;-64
2022/06/29 01:50:01;;;;;;;2.95;1.65;;;18.10;99.30;;;;;;5049352;28;20021;-64
2022/06/29 01:52:28;;;;;;;2.17;1.40;;;18.10;99.40;;;;;;5049587;28;20024;-64
2022/06/29 01:54:55;;;;;;;3.00;1.40;;;18.20;99.50;;;;;;5047261;28;20033;-64
2022/06/29 01:57:22;;;;;;;3.28;1.25;;;18.30;99.20;;;;;;5049342;28;20025;-64
2022/06/29 01:59:49;;;;;;;3.17;0.90;;;18.40;98.60;;;;;;5048832;28;20024;-64
2022/06/29 02:02:16;;;;;;;6.05;1.58;;;18.40;98.20;;;;;;5049187;28;20069;-63
2022/06/29 02:04:43;;;;;;;3.85;1.27;;;18.30;98.30;;;;;;5049658;28;20440;-64
2022/06/29 02:07:11;;;;;;;3.85;1.10;;;18.40;98.00;;;;;;5048962;28;20053;-64
2022/06/29 02:09:38;;;;;;;2.88;1.42;;;18.60;97.60;;;;;;5048304;28;20096;-64
2022/06/29 02:12:05;;;;;;;1.25;0.70;;;18.60;97.80;;;;;;5048735;28;20407;-64
2022/06/29 02:14:32;;;;;;;1.75;0.75;;;18.60;96.90;;;;;;5048600;28;20013;-62
2022/06/29 02:16:59;;;;;;;2.15;0.85;;;18.70;97.20;;;;;;5048953;28;20027;-64
2022/06/29 02:19:26;;;;;;;2.22;0.88;;;18.90;97.40;;;;;;5047714;28;20027;-64
2022/06/29 02:21:53;;;;;;;3.40;1.30;;;19.00;96.90;;;;;;5048579;28;20180;-64
2022/06/29 02:24:21;;;;;;;2.67;1.00;;;19.00;96.70;;;;;;5048816;28;20040;-64
2022/06/29 02:26:48;;;;;;;5.53;1.10;;;19.10;96.20;;;;;;5049017;28;20025;-63
2022/06/29 02:29:15;;;;;;;2.25;0.88;;;19.00;96.60;;;;;;5047538;28;20013;-63
2022/06/29 02:34:46;;;;;;;2.60;0.70;;;19.00;96.10;;;;;;5047907;28;20114;-64
2022/06/29 02:37:17;;;;;;;2.10;0.80;;;19.00;96.20;;;;;;5048798;28;20167;-64
2022/06/29 02:39:45;;;;;;;2.45;0.70;;;19.20;95.60;;;;;;5049233;28;20061;-63
2022/06/29 02:42:13;;;;;;;1.20;0.55;;;19.10;95.20;;;;;;5048787;28;20477;-63
2022/06/29 02:44:40;;;;;;;2.15;0.80;;;19.20;94.90;;;;;;5047967;28;20151;-62
2022/06/29 02:47:08;;;;;;;0.70;0.40;;;19.20;94.40;;;;;;5035229;28;20025;-62
2022/06/29 02:49:36;;;;;;;1.33;0.60;;;19.10;93.90;;;;;;5046742;28;20516;-62
2022/06/29 02:52:03;;;;;;;2.85;0.73;;;19.10;94.40;;;;;;5048963;28;20017;-62
2022/06/29 02:54:30;;;;;;;2.13;0.65;;;19.10;94.70;;;;;;5047878;28;20021;-63
2022/06/29 02:56:57;;;;;;;1.02;0.82;;;19.20;94.60;;;;;;5046970;28;20017;-62
2022/06/29 02:59:25;;;;;;;4.20;0.70;;;19.20;94.80;;;;;;5047678;28;20043;-64
2022/06/29 03:01:52;;;;;;;4.43;0.77;;;19.20;94.00;;;;;;5048771;28;20376;-64
2022/06/29 03:04:19;;;;;;;1.33;0.95;;;19.10;94.00;;;;;;5048507;28;20029;-63
2022/06/29 03:06:47;;;;;;;1.15;0.50;;;19.10;94.40;;;;;;5048940;28;20104;-62
2022/06/29 03:09:14;;;;;;;1.65;0.60;;;19.00;94.50;;;;;;5048098;28;20349;-62
2022/06/29 03:11:41;;;;;;;1.00;0.47;;;19.20;94.00;;;;;;5047700;28;20103;-63
2022/06/29 03:14:08;;;;;;;1.92;0.70;;;19.10;94.00;;;;;;5047399;28;20459;-62
2022/06/29 03:16:35;;;;;;;2.92;0.65;;;19.10;94.30;;;;;;5049570;28;20028;-63
2022/06/29 03:19:02;;;;;;;1.20;0.47;;;19.20;94.00;;;;;;5051789;28;20062;-63
2022/06/29 03:21:29;;;;;;;2.50;0.60;;;19.10;93.90;;;;;;5052722;28;20033;-64
2022/06/29 03:23:56;;;;;;;1.80;0.50;;;19.00;94.20;;;;;;5052914;28;20246;-64
2022/06/29 03:26:23;;;;;;;2.00;0.70;;;19.00;94.40;;;;;;4701146;28;10000315;-64
2022/06/29 03:28:52;;;;;;;1.15;0.50;;;19.00;93.80;;;;;;5049409;28;20025;-63
2022/06/29 03:31:20;;;;;;;1.40;0.70;;;18.90;94.20;;;;;;5049520;28;20231;-63
2022/06/29 03:33:48;;;;;;;3.40;0.70;;;18.80;94.30;;;;;;5050113;28;20025;-64
2022/06/29 03:36:15;;;;;;;2.30;0.60;;;18.80;94.40;;;;;;5049693;28;20487;-64
2022/06/29 03:38:42;;;;;;;3.13;0.52;;;18.70;94.10;;;;;;5047826;28;20120;-64
2022/06/29 03:41:09;;;;;;;2.70;1.13;;;18.80;94.40;;;;;;5049917;28;20048;-63
2022/06/29 03:43:36;;;;;;;2.50;0.73;;;18.80;94.20;;;;;;5049398;28;20573;-62
2022/06/29 03:46:04;;;;;;;1.23;0.45;;;18.90;94.00;;;;;;5050362;28;20021;-62
2022/06/29 03:48:31;;;;;;;2.70;0.60;;;18.90;93.80;;;;;;5048506;28;20036;-62
2022/06/29 03:50:58;;;;;;;1.63;0.57;;;19.10;94.00;;;;;;5049350;28;20109;-61
2022/06/29 03:53:25;;;;;;;3.10;0.90;;;19.10;93.50;;;;;;5049674;28;20400;-62
2022/06/29 03:55:52;;;;;;;0.77;0.35;;;19.20;93.70;;;;;;5049754;28;20035;-62
2022/06/29 03:58:19;;;;;;;1.40;0.50;;;19.40;93.30;;;;;;5048482;28;20075;-63
2022/06/29 04:00:46;;;;;;;1.85;0.70;;;19.40;93.30;;;;;;5048762;28;20748;-61
2022/06/29 04:03:13;;;;;;;1.45;0.60;;;19.50;92.90;;;;;;5048987;28;20035;-62
2022/06/29 04:05:41;;;;;;;1.45;0.40;;;19.40;92.90;;;;;;5049389;28;20096;-62
2022/06/29 04:08:08;;;;;;;1.95;0.70;;;19.50;92.90;;;;;;5048373;28;20044;-64
2022/06/29 04:10:35;;;;;;;2.53;0.70;;;19.50;92.90;;;;;;5049201;28;20028;-62
2022/06/29 04:13:02;;;;;;;2.30;0.57;;;19.60;93.00;;;;;;5048737;28;20021;-62
2022/06/29 04:15:29;;;;;;;4.55;0.57;;;19.60;93.20;;;;;;5048628;28;20029;-61
2022/06/29 04:17:56;;;;;;;2.08;0.50;;;19.60;92.70;;;;;;5048599;28;20033;-63
2022/06/29 04:23:09;;;;;;;1.92;0.60;;;19.50;92.80;;;;;;5048710;28;20514;-61
2022/06/29 04:25:36;;;;;;;1.08;0.50;;;19.40;93.00;;;;;;5049484;28;20395;-62
2022/06/29 04:28:03;;;;;;;2.33;0.60;;;19.50;92.80;;;;;;5046663;28;20021;-62
2022/06/29 04:30:31;;;;;;;2.05;0.95;;;19.60;92.80;;;;;;5048341;28;20110;-63
2022/06/29 04:32:58;;;;;;;2.00;0.70;;;19.50;92.60;;;;;;5048260;28;20061;-61
2022/06/29 04:35:25;;;;;;;1.63;0.40;;;19.60;92.40;;;;;;5049551;28;20390;-64
2022/06/29 04:37:52;;;;;;;2.33;0.82;;;19.60;92.50;;;;;;5047873;28;20559;-64
2022/06/29 04:40:19;;;;;;;1.50;0.57;;;19.60;92.90;;;;;;5048456;28;20033;-63
2022/06/29 04:42:46;;;;;;;2.08;0.55;;;19.60;92.70;;;;;;5048713;28;20056;-61
2022/06/29 04:48:00;;;;;;;1.42;0.68;;;19.40;92.70;;;;;;5048222;28;20052;-62
2022/06/29 04:50:28;;;;;;;1.83;0.70;;;19.30;92.90;;;;;;5046481;28;20029;-64
2022/06/29 04:52:56;;;;;;;1.00;0.32;;;19.00;93.10;;;;;;5050038;28;20028;-63
2022/06/29 04:55:25;;;;;;;2.13;0.60;;;18.90;93.30;;;;;;5049646;28;20021;-64
2022/06/29 04:57:53;;;;;;;2.05;0.70;;;18.80;93.30;;;;;;5048481;28;20518;-65
2022/06/29 05:00:20;;;;;;;1.42;0.55;;;18.60;93.50;;;;;;5049830;28;20031;-61
2022/06/29 05:02:47;;;;;;;2.80;0.55;;;18.60;93.40;;;;;;5046252;28;20760;-61
2022/06/29 05:05:14;;;;;;;1.70;0.65;;;18.40;93.80;;;;;;5048254;28;20061;-63
2022/06/29 05:07:41;;;;;;;1.75;0.60;;;18.30;94.10;;;;;;5048475;28;20053;-61
2022/06/29 05:10:09;;;;;;;1.75;0.60;;;18.30;94.00;;;;;;5048110;28;20021;-63
2022/06/29 05:12:38;;;;;;;4.45;0.88;;;18.20;94.20;;;;;;5049116;28;20018;-63
2022/06/29 05:15:07;;;;;;;3.25;0.57;;;18.10;94.60;;;;;;5047938;28;20090;-61
2022/06/29 05:17:37;;;;;;;1.23;0.60;;;18.00;94.60;;;;;;5048456;28;20079;-62
2022/06/29 05:20:07;;;;;;;1.98;0.52;;;17.90;94.80;;;;;;5047305;28;20037;-63
2022/06/29 05:22:35;;;;;;;2.50;0.80;;;17.80;95.20;;;;;;5047182;28;20698;-62
2022/06/29 05:25:03;;;;;;;1.30;0.55;;;17.70;95.50;;;;;;5047853;28;20075;-61
2022/06/29 05:27:30;;;;;;;1.42;0.60;;;17.60;95.50;;;;;;5048097;28;20025;-62
2022/06/29 05:29:58;;;;;;;3.13;0.68;;;17.60;95.50;;;;;;5055126;23;20607;-63
2022/06/29 05:32:25;;;;;;;6.50;0.80;;;17.50;95.80;;;;;;5053452;28;20124;-62
2022/06/29 05:34:52;;;;;;;1.83;0.60;;;17.40;95.90;;;;;;5045398;28;20558;-61
2022/06/29 05:37:20;;;;;;;3.15;0.82;;;17.30;96.20;;;;;;5042019;28;20106;-62
2022/06/29 05:39:47;;;;;;;1.20;0.70;;;17.20;96.30;;;;;;5044648;28;20541;-64
2022/06/29 05:42:14;;;;;;;5.97;1.05;;;17.10;96.60;;;;;;5042424;28;20471;-66
2022/06/29 05:44:41;;;;;;;3.50;0.82;;;17.00;97.00;;;;;;5023812;28;20179;-64
2022/06/29 05:47:09;;;;;;;1.65;0.90;;;16.90;97.10;;;;;;5040457;28;20561;-62
2022/06/29 05:49:37;;;;;;;2.42;0.80;;;16.80;97.40;;;;;;5042445;28;20471;-62
2022/06/29 05:52:04;;;;;;;1.50;0.80;;;16.70;97.50;;;;;;5042179;28;20376;-63
2022/06/29 05:54:32;;;;;;;4.88;0.93;;;16.60;97.70;;;;;;5046844;28;20025;-65
2022/06/29 05:56:59;;;;;;;4.03;0.90;;;16.50;98.10;;;;;;5043830;28;20057;-64
2022/06/29 05:59:26;;;;;;;2.45;0.88;;;16.40;98.30;;;;;;5043829;28;20032;-64
2022/06/29 06:01:53;;;;;;;3.03;1.50;;;16.30;98.80;;;;;;5064805;28;20017;-66
2022/06/29 06:04:20;;;;;;;3.83;1.00;;;16.20;98.90;;;;;;5071386;28;20031;-61
2022/06/29 06:06:47;;;;;;;3.60;2.05;;;16.10;99.20;;;;;;5073844;28;20044;-62
2022/06/29 06:09:14;;;;;;;3.17;1.75;;;16.10;99.30;;;;;;5075126;28;20120;-65
2022/06/29 06:11:42;;;;;;;4.85;0.93;;;16.00;99.40;;;;;;5072057;28;20063;-66
2022/06/29 06:14:09;;;;;;;4.47;1.42;;;16.00;99.50;;;;;;5074340;28;20027;-66
2022/06/29 06:16:36;;;;;;;2.03;0.80;;;15.90;99.70;;;;;;5073445;28;20077;-62
2022/06/29 06:19:03;;;;;;;3.05;1.65;;;15.90;99.90;;;;;;5070547;28;20024;-62
2022/06/29 06:21:35;;;;;;;1.80;1.30;;;15.90;99.90;;;;;;5073694;28;20044;-62
2022/06/29 06:24:02;;;;;;;5.35;3.67;;;15.90;99.90;;;;;;5070299;28;20039;-63
2022/06/29 06:26:29;;;;;;;5.18;2.80;;;15.90;99.90;;;;;;5071208;28;20031;-66
2022/06/29 06:28:56;;;;;;;4.18;2.40;;;15.80;99.90;;;;;;5071590;28;20028;-64
2022/06/29 06:31:27;;;;;;;4.15;2.17;;;15.80;99.90;;;;;;5066315;28;20041;-65
2022/06/29 06:33:54;;;;;;;4.88;2.15;;;15.70;99.90;;;;;;5075032;28;20067;-66
2022/06/29 06:36:22;;;;;;;5.80;2.65;;;15.50;99.90;;;;;;5054630;28;20027;-63
2022/06/29 06:38:49;;;;;;;2.67;1.63;;;15.50;99.90;;;;;;5065670;28;20028;-64
2022/06/29 06:41:22;;;;;;;1.40;1.27;;;15.40;99.90;;;;;;5068780;28;20306;-66
2022/06/29 06:43:51;;;;;;;2.63;1.10;;;15.40;99.90;;;;;;5064458;28;20064;-65
2022/06/29 06:46:19;;;;;;;2.30;1.48;;;15.20;99.90;;;;;;5077320;28;20387;-64
2022/06/29 06:48:46;;;;;;;2.50;0.95;;;15.10;99.90;;;;;;5071269;28;20029;-65
2022/06/29 06:51:13;;;;;;;9.65;5.70;;;15.10;99.90;;;;;;5072694;28;20027;-64
2022/06/29 06:53:41;;;;;;;5.47;2.45;;;15.10;99.90;;;;;;5078949;28;20031;-63
2022/06/29 06:56:08;;;;;;;3.70;1.85;;;15.00;99.90;;;;;;5064807;28;20067;-65
2022/06/29 06:58:38;;;;;;;3.58;2.05;;;14.90;99.90;;;;;;5070252;28;20296;-63
2022/06/29 07:01:06;;;;;;;2.88;2.05;;;14.70;99.90;;;;;;5074403;28;20028;-65
2022/06/29 07:03:37;;;;;;;13.63;5.50;;;14.70;99.90;;;;;;5067631;28;20533;-65
2022/06/29 07:06:06;;;;;;;5.75;3.97;;;14.50;99.90;;;;;;5071443;28;20035;-65
2022/06/29 07:08:35;;;;;;;6.82;3.17;;;14.40;99.90;;;;;;5066349;28;20024;-67
2022/06/29 07:11:04;;;;;;;6.38;4.55;;;14.20;99.90;;;;;;5065006;28;20035;-65
2022/06/29 07:13:34;;;;;;;2.90;2.00;;;14.20;99.90;;;;;;5066099;28;20107;-62
2022/06/29 07:16:03;;;;;;;2.85;2.10;;;14.20;99.90;;;;;;5054445;28;20032;-64
2022/06/29 07:18:31;;;;;;;2.42;1.50;;;14.10;99.90;;;;;;5066255;28;20020;-66
2022/06/29 07:20:59;;;;;;;4.20;1.50;;;14.00;99.90;;;;;;5066387;28;20043;-67
2022/06/29 07:23:29;;;;;;;6.93;2.70;;;13.90;99.90;;;;;;5068095;28;20466;-64
2022/06/29 07:25:57;;;;;;;8.45;3.67;;;13.90;99.90;;;;;;5063487;28;20447;-66
2022/06/29 07:28:25;;;;;;;12.48;6.90;;;13.90;99.90;;;;;;5065516;28;20101;-65
2022/06/29 07:30:52;;;;;;;5.47;3.42;;;13.80;99.90;;;;;;5065958;28;20055;-66
2022/06/29 07:33:19;;;;;;;6.13;3.25;;;13.70;99.90;;;;;;5070260;28;20051;-66
2022/06/29 07:35:46;;;;;;;6.13;2.33;;;13.70;99.90;;;;;;5069073;28;20033;-68
2022/06/29 07:38:13;;;;;;;4.50;2.20;;;13.60;99.90;;;;;;5067092;28;20033;-63
2022/06/29 07:40:40;;;;;;;4.97;2.03;;;13.60;99.90;;;;;;5067699;28;20546;-66
2022/06/29 07:43:08;;;;;;;3.90;2.30;;;13.50;99.90;;;;;;5067236;28;20100;-62
2022/06/29 07:45:35;;;;;;;5.45;3.10;;;13.60;99.90;;;;;;5069692;28;20035;-65
2022/06/29 07:48:02;;;;;;;5.95;3.90;;;13.60;99.90;;;;;;5058731;28;20498;-68
2022/06/29 07:50:30;;;;;;;4.20;2.95;;;13.50;99.90;;;;;;5067963;28;20016;-68
2022/06/29 07:52:57;;;;;;;17.65;14.30;;;13.40;99.90;;;;;;5065215;28;20028;-68
2022/06/29 07:55:24;;;;;;;15.23;11.50;;;13.30;99.90;;;;;;5071882;28;20046;-65
2022/06/29 07:57:52;;;;;;;8.40;5.43;;;13.30;99.90;;;;;;5070441;28;20122;-70
2022/06/29 08:00:19;;;;;;;5.40;3.63;;;13.30;99.90;;;;;;5068915;28;20042;-71
2022/06/29 08:02:48;;;;;;;5.82;3.28;;;13.30;99.90;;;;;;5067715;28;20041;-68
2022/06/29 08:05:15;;;;;;;25.55;17.20;;;13.30;99.90;;;;;;5076904;28;20077;-65
2022/06/29 08:07:42;;;;;;;11.55;8.15;;;13.30;99.90;;;;;;5073656;28;20421;-67
2022/06/29 08:10:10;;;;;;;4.75;3.20;;;13.20;99.90;;;;;;5073190;28;20070;-64
2022/06/29 08:12:37;;;;;;;6.72;2.50;;;13.20;99.90;;;;;;5076728;28;20158;-65
2022/06/29 08:15:05;;;;;;;5.88;3.20;;;13.30;99.90;;;;;;5072800;28;20036;-65
2022/06/29 08:17:33;;;;;;;7.35;4.50;;;13.30;99.90;;;;;;5073135;28;20032;-65
2022/06/29 08:20:02;;;;;;;6.53;4.30;;;13.30;99.90;;;;;;5067640;28;20033;-69
2022/06/29 08:22:29;;;;;;;8.73;5.88;;;13.30;99.90;;;;;;5071800;28;20149;-67
2022/06/29 08:24:56;;;;;;;10.10;7.25;;;13.30;99.90;;;;;;5069699;28;20032;-69
2022/06/29 08:27:23;;;;;;;7.90;5.75;;;13.30;99.90;;;;;;5071473;28;20020;-69
2022/06/29 08:29:51;;;;;;;5.97;4.75;;;13.30;99.90;;;;;;5072290;28;20070;-65
2022/06/29 08:32:18;;;;;;;7.28;3.95;;;13.30;99.90;;;;;;5053277;28;20494;-67
2022/06/29 08:34:45;;;;;;;4.45;3.50;;;13.30;99.90;;;;;;5073541;28;20024;-64
2022/06/29 08:37:12;;;;;;;4.72;2.95;;;13.30;99.90;;;;;;5072907;28;20693;-69
2022/06/29 08:39:40;;;;;;;5.05;2.90;;;13.20;99.90;;;;;;5068972;28;20025;-68
2022/06/29 08:42:07;;;;;;;6.13;2.95;;;13.30;99.90;;;;;;5071407;28;20022;-68
2022/06/29 08:44:36;;;;;;;4.95;2.85;;;13.30;99.90;;;;;;5071977;28;20183;-70
2022/06/29 08:47:11;;;;;;;5.10;3.00;;;13.20;99.90;;;;;;5068924;28;20032;-68
2022/06/29 08:49:39;;;;;;;4.57;2.70;;;13.30;99.90;;;;;;5067408;28;20081;-67
2022/06/29 08:52:08;;;;;;;6.07;2.85;;;13.20;99.90;;;;;;5068769;28;20455;-67
2022/06/29 08:54:43;;;;;;;4.72;2.42;;;13.10;99.90;;;;;;5069592;28;20030;-66
2022/06/29 08:57:11;;;;;;;5.95;2.70;;;13.00;99.90;;;;;;5070679;28;20397;-68
2022/06/29 08:59:38;;;;;;;5.88;2.70;;;12.90;99.90;;;;;;5073084;28;20057;-64
2022/06/29 09:02:06;;;;;;;4.75;2.40;;;12.90;99.90;;;;;;5069670;28;20039;-67
2022/06/29 09:04:33;;;;;;;4.88;2.72;;;12.80;99.90;;;;;;5075841;28;20031;-65
2022/06/29 09:07:00;;;;;;;5.10;2.97;;;12.70;99.90;;;;;;5074027;28;20607;-65
2022/06/29 09:09:28;;;;;;;7.45;3.83;;;12.70;99.90;;;;;;5073764;28;20086;-67
2022/06/29 09:11:55;;;;;;;8.93;6.50;;;12.70;99.90;;;;;;5069893;28;20310;-67
2022/06/29 09:14:24;;;;;;;7.65;4.70;;;12.60;99.90;;;;;;5073102;28;20056;-65
2022/06/29 09:17:00;;;;;;;8.13;4.63;;;12.50;99.90;;;;;;5076624;28;20055;-63
2022/06/29 09:19:44;;;;;;;9.00;4.22;;;12.50;99.90;;;;;;5071189;28;20034;-67
2022/06/29 09:22:11;;;;;;;7.25;4.05;;;12.50;99.90;;;;;;5069760;28;20089;-65
2022/06/29 09:24:39;;;;;;;6.93;4.40;;;12.40;99.90;;;;;;5072553;28;20114;-67
2022/06/29 09:27:08;;;;;;;7.32;3.92;;;12.40;99.90;;;;;;5075695;28;20399;-65
2022/06/29 09:29:39;;;;;;;5.18;3.15;;;12.30;99.90;;;;;;5074082;28;20107;-69
2022/06/29 09:32:13;;;;;;;4.20;2.90;;;12.20;99.90;;;;;;5071041;28;20036;-65
2022/06/29 09:34:49;;;;;;;4.78;2.78;;;12.20;99.90;;;;;;5052634;28;20418;-67
2022/06/29 09:37:21;;;;;;;4.30;2.78;;;12.20;99.90;;;;;;5071880;28;20035;-66
2022/06/29 09:39:51;;;;;;;4.68;3.20;;;12.20;99.90;;;;;;5069750;28;20051;-66
2022/06/29 09:42:19;;;;;;;9.57;6.57;;;12.00;99.90;;;;;;5072389;28;20025;-65
2022/06/29 09:44:47;;;;;;;6.00;4.35;;;11.90;99.90;;;;;;5074033;28;20030;-66
2022/06/29 09:47:19;;;;;;;4.78;3.40;;;11.80;99.90;;;;;;5071140;28;20039;-65
2022/06/29 09:49:59;;;;;;;5.25;3.20;;;11.70;99.90;;;;;;5069756;28;20541;-67
2022/06/29 09:52:27;;;;;;;6.32;3.65;;;11.60;99.90;;;;;;5068397;28;20035;-66
2022/06/29 09:54:58;;;;;;;8.07;4.18;;;11.60;99.90;;;;;;5071942;28;20024;-68
2022/06/29 09:57:31;;;;;;;6.15;3.90;;;11.60;99.90;;;;;;5071962;28;20099;-69
2022/06/29 10:02:53;;;;;;;8.30;3.83;;;11.50;99.90;;;;;;5064794;28;20039;-66
2022/06/29 10:05:54;;;;;;;6.50;3.22;;;11.60;99.90;;;;;;5072351;28;20020;-67
2022/06/29 10:08:14;;;;;;;10.40;6.95;;;11.60;99.90;;;;;;5066932;28;20415;-66
2022/06/29 10:10:46;;;;;;;11.48;7.53;;;11.50;99.90;;;;;;5068388;28;20034;-68
2022/06/29 10:16:11;;;;;;;5.40;3.63;;;11.50;99.90;;;;;;5065423;28;20101;-66
2022/06/29 10:18:59;;;;;;;6.57;4.60;;;11.50;99.90;;;;;;5069013;28;20209;-66
2022/06/29 10:21:31;;;;;;;7.38;4.15;;;11.60;99.90;;;;;;5067579;28;20456;-66
2022/06/29 10:24:00;;;;;;;5.90;4.43;;;11.70;99.90;;;;;;5067220;28;20378;-68
2022/06/29 10:26:37;;;;;;;5.18;3.92;;;11.70;99.90;;;;;;5066856;28;20433;-68
2022/06/29 10:29:07;;;;;;;6.07;3.45;;;11.70;99.90;;;;;;5067178;28;20107;-68
2022/06/29 10:31:53;;;;;;;5.32;3.40;;;11.70;99.90;;;;;;5070368;28;20105;-67
2022/06/29 10:34:30;;;;;;;6.38;3.38;;;11.70;99.90;;;;;;5060221;28;20027;-67
2022/06/29 10:37:07;;;;;;;7.50;3.80;;;11.70;99.90;;;;;;5068343;28;20425;-66
2022/06/29 10:39:49;;;;;;;4.95;3.17;;;11.70;99.90;;;;;;5063767;28;20503;-67
2022/06/29 10:45:08;;;;;;;4.38;3.20;;;11.60;99.90;;;;;;5067696;28;20106;-67
2022/06/29 10:47:36;;;;;;;5.53;3.92;;;11.60;99.90;;;;;;5069942;28;20446;-64
2022/06/29 10:50:16;;;;;;;7.03;4.03;;;11.60;99.90;;;;;;5069312;28;20490;-64
2022/06/29 10:52:46;;;;;;;6.45;4.35;;;11.50;99.90;;;;;;5065097;28;20025;-64
2022/06/29 10:55:14;;;;;;;5.38;4.00;;;11.40;99.90;;;;;;5067896;28;20103;-65
2022/06/29 10:57:43;;;;;;;9.65;4.82;;;11.40;99.90;;;;;;5068929;28;20494;-63
2022/06/29 11:00:18;;;;;;;7.57;5.05;;;11.30;99.90;;;;;;5067026;28;20114;-67
2022/06/29 11:02:46;;;;;;;8.60;5.10;;;11.30;99.90;;;;;;5067597;28;20036;-66
2022/06/29 11:05:16;;;;;;;9.23;5.00;;;11.20;99.90;;;;;;5069265;28;20024;-63
2022/06/29 11:13:25;;;;;;;6.28;3.78;;;11.10;99.90;;;;;;4716791;28;9999846;-63
2022/06/29 11:15:54;;;;;;;6.85;4.60;;;11.10;99.90;;;;;;5066411;28;20035;-65
2022/06/29 11:18:32;;;;;;;21.80;13.80;;;11.00;99.90;;;;;;5069946;28;20028;-65
2022/06/29 11:21:04;;;;;;;17.50;11.23;;;10.90;99.90;;;;;;5068690;28;20541;-67
2022/06/29 11:23:33;;;;;;;16.25;10.90;;;10.90;99.90;;;;;;5066126;28;20032;-65
2022/06/29 11:26:03;;;;;;;13.95;8.82;;;10.90;99.90;;;;;;5067530;28;20363;-67
2022/06/29 11:28:40;;;;;;;13.90;8.13;;;10.90;99.90;;;;;;5068250;28;20525;-68
2022/06/29 11:31:14;;;;;;;10.40;5.88;;;11.00;99.90;;;;;;5062598;28;20036;-65
2022/06/29 11:33:46;;;;;;;9.93;6.25;;;11.00;99.90;;;;;;5062249;28;20495;-63
2022/06/29 11:36:19;;;;;;;10.70;5.40;;;11.00;99.90;;;;;;5066604;28;20504;-65
2022/06/29 11:38:49;;;;;;;8.77;5.60;;;11.20;99.90;;;;;;5067806;28;20037;-63
2022/06/29 11:44:30;;;;;;;12.20;6.93;;;11.30;99.90;;;;;;4976523;28;20572;-64
2022/06/29 11:46:57;;;;;;;13.02;9.93;;;11.40;99.90;;;;;;4977861;28;20484;-63
2022/06/29 11:49:36;;;;;;;10.35;7.20;;;11.40;99.90;;;;;;4976785;28;20037;-64
2022/06/29 11:52:13;;;;;;;29.20;16.33;;;11.40;99.90;;;;;;4977137;28;21303;-67
2022/06/29 11:54:52;;;;;;;22.15;14.00;;;11.40;99.90;;;;;;4977289;28;20827;-65
2022/06/29 11:57:20;;;;;;;21.15;12.93;;;11.30;99.90;;;;;;4978607;28;20034;-66
2022/06/29 11:59:48;;;;;;;15.88;10.10;;;11.20;99.90;;;;;;4975519;28;20544;-63
2022/06/29 12:02:17;;;;;;;14.90;9.90;;;11.10;99.90;;;;;;4974384;28;20124;-62
2022/06/29 12:04:46;;;;;;;15.60;10.32;;;11.00;99.90;;;;;;4977177;28;20034;-62
2022/06/29 12:07:19;;;;;;;10.65;8.02;;;10.90;99.90;;;;;;4977369;28;20628;-64
2022/06/29 12:09:48;;;;;;;21.80;12.63;;;10.90;99.90;;;;;;4976926;28;20041;-62
2022/06/29 12:12:15;;;;;;;22.15;12.23;;;10.80;99.90;;;;;;4978487;28;20088;-66
2022/06/29 12:14:43;;;;;;;17.83;12.43;;;10.80;99.90;;;;;;4979171;28;20648;-62
2022/06/29 12:17:13;;;;;;;13.93;9.48;;;10.70;99.90;;;;;;4979653;28;20554;-63
2022/06/29 12:19:40;;;;;;;10.98;7.03;;;10.60;99.90;;;;;;4979918;28;20064;-67
2022/06/29 12:22:08;;;;;;;13.85;7.85;;;10.60;99.90;;;;;;5054334;28;20091;-66
2022/06/29 12:24:35;;;;;;;15.68;8.55;;;10.50;99.90;;;;;;5070940;28;20031;-64
2022/06/29 12:27:03;;;;;;;15.75;8.98;;;10.50;99.90;;;;;;5079170;28;20085;-62
2022/06/29 12:29:30;;;;;;;10.43;8.05;;;10.50;99.90;;;;;;5081108;28;20066;-63
2022/06/29 12:31:57;;;;;;;11.98;8.13;;;10.50;99.90;;;;;;5073184;28;20029;-64
2022/06/29 12:34:25;;;;;;;10.35;7.15;;;10.60;99.90;;;;;;5070250;28;20020;-64
2022/06/29 12:36:52;;;;;;;11.25;7.32;;;10.60;99.90;;;;;;5077750;28;20028;-64
2022/06/29 12:39:19;;;;;;;9.95;7.63;;;10.50;99.90;;;;;;5081895;28;20981;-64
2022/06/29 12:41:46;;;;;;;11.15;7.30;;;10.50;99.90;;;;;;5081310;28;20032;-67
2022/06/29 12:44:13;;;;;;;10.32;6.88;;;10.40;99.90;;;;;;5078670;28;20036;-64
2022/06/29 12:46:40;;;;;;;10.60;8.50;;;10.30;99.90;;;;;;5081180;28;20032;-67
2022/06/29 12:49:08;;;;;;;17.45;12.13;;;10.20;99.90;;;;;;5075923;28;20024;-65
2022/06/29 12:51:35;;;;;;;14.88;11.52;;;10.20;99.90;;;;;;5071352;28;20122;-66
2022/06/29 12:54:02;;;;;;;13.02;10.75;;;10.20;99.90;;;;;;5078172;28;20026;-63
2022/06/29 12:56:30;;;;;;;14.30;10.57;;;10.10;99.90;;;;;;5080043;28;20028;-62
2022/06/29 12:58:57;;;;;;;15.77;11.75;;;10.00;99.90;;;;;;5080594;28;20016;-66
2022/06/29 13:01:24;;;;;;;15.27;10.90;;;10.10;99.90;;;;;;5078810;28;20027;-65
2022/06/29 13:03:51;;;;;;;14.80;11.05;;;10.10;99.90;;;;;;5075385;28;20024;-64
2022/06/29 13:06:18;;;;;;;14.15;9.30;;;10.10;99.90;;;;;;5077371;28;20043;-63
2022/06/29 13:08:45;;;;;;;12.43;8.50;;;10.10;99.90;;;;;;5072754;28;20031;-63
2022/06/29 13:11:13;;;;;;;9.05;7.90;;;10.00;99.90;;;;;;5079129;28;20022;-63
2022/06/29 13:13:40;;;;;;;10.90;8.25;;;10.00;99.90;;;;;;5073320;28;20049;-64
2022/06/29 13:16:08;;;;;;;10.40;7.68;;;10.00;99.90;;;;;;5079740;28;20582;-67